100LL.CA
Aviation Fuel Pricing for Canadians
Please upgrade your browser - Tested with IE9, FireFox, Chrome, Safari

Fuel Airports Other Help
Prices Economy Info List METAR/TAF Kneeboard Help

Reference Airport: KENORA, ON
N 49 47 18  W 094 21 47
Provinces to show:

CYQK KENORA, ON
WEATHER
METARCYQK 131800Z 17009G15KT 20SM FEW081 SCT160 BKN230 10/01 A2967 RMK AC1AC2CI4 SLP061
TAFTAF CYQK 131340Z 1314/1402 15010KT P6SM BKN080 BECMG 1315/1317 16010G20KT SCT100 FM131900 19010KT P6SM FEW040 BECMG 1323/1401 VRB03KT RMK NXT FCST BY 132000Z
OTHER SITES

FlightAware

FltPlan

Google Maps

SkyVector
FUEL
FBO 100LL
member
100LL
public
JETA MOGAS
Opr (2022-05-06)3.2002.800
  Note: Ramp Fee $8, Facility Fee $5 on top of fuel prices.
Canada Flight Supplement - CYQK
(opens in new tab/window)


Please Send Updates!

Desktop Version ]  [ Mobile Version ]  [ Disclaimer ]